BGTL

Thule Air Base Airport

Thule, Greenland

BGTL 231058Z AUTO 11019G26KT 9999 FEW025 BKN180 06/00 A2969 RMK AO2 PK WND 13026/48 CIG 028 RWY26 SLP037 T00570001

Observed Flight Rules
Aug-23 @ 10:58 UTC (an hour ago)
 
Visual Flight Rules
Wind Visibility Clouds
110° at 19 knots
 Gusting to 26 knots
10,000+ meters
  • Few at 2,500' AGL
  • Broken at 18,000' AGL
Temperatures Readings
Current 6°C / 43°F
Dewpoint 0°C / 32°F
Humidity 66%
Altimeter 29.69" Hg
Pressure 1003.7 hPa
Elevation 77
Observed Flight Rules
Aug-23 @ 10:58 UTC
(an hour ago)
 
VFR
Wind Visibility
110° at 19 knots
 Gusting to 26 knots
10,000+ meters
Clouds
  • Few at 2,500' AGL
  • Broken at 18,000' AGL
Temperature Dewpoint
6°C / 43°F 0°C / 32°F
Humidity Altimeter Pressure
66% 29.69" Hg 1003.7 hPa